sensor_id;sensor_type;location;lat;lon;timestamp;P1;durP1;ratioP1;P2;durP2;ratioP2
77280;SDS011;66339;47.262;17.144;2023-06-05T00:00:00;9.07;;;2.00;;
77280;SDS011;66339;47.262;17.144;2023-06-05T00:02:28;4.10;;;1.90;;
77280;SDS011;66339;47.262;17.144;2023-06-05T00:04:56;3.05;;;1.92;;
77280;SDS011;66339;47.262;17.144;2023-06-05T00:07:29;3.08;;;1.80;;
77280;SDS011;66339;47.262;17.144;2023-06-05T00:12:45;2.47;;;1.77;;
77280;SDS011;66339;47.262;17.144;2023-06-05T00:15:13;4.57;;;1.95;;
77280;SDS011;66339;47.262;17.144;2023-06-05T00:17:50;4.07;;;2.10;;
77280;SDS011;66339;47.262;17.144;2023-06-05T00:20:24;2.60;;;2.00;;
77280;SDS011;66339;47.262;17.144;2023-06-05T00:23:00;3.95;;;1.80;;
77280;SDS011;66339;47.262;17.144;2023-06-05T00:25:41;4.57;;;2.33;;
77280;SDS011;66339;47.262;17.144;2023-06-05T00:28:12;4.05;;;1.73;;
77280;SDS011;66339;47.262;17.144;2023-06-05T00:30:48;2.90;;;1.90;;
77280;SDS011;66339;47.262;17.144;2023-06-05T00:33:22;2.42;;;1.80;;
77280;SDS011;66339;47.262;17.144;2023-06-05T00:35:54;3.20;;;1.83;;
77280;SDS011;66339;47.262;17.144;2023-06-05T00:38:25;3.62;;;2.10;;
77280;SDS011;66339;47.262;17.144;2023-06-05T00:41:02;3.15;;;1.98;;
77280;SDS011;66339;47.262;17.144;2023-06-05T00:43:39;4.32;;;1.90;;
77280;SDS011;66339;47.262;17.144;2023-06-05T00:46:13;3.30;;;1.98;;
77280;SDS011;66339;47.262;17.144;2023-06-05T00:48:53;3.03;;;1.80;;
77280;SDS011;66339;47.262;17.144;2023-06-05T00:51:24;2.90;;;1.85;;
77280;SDS011;66339;47.262;17.144;2023-06-05T00:53:57;2.60;;;1.75;;
77280;SDS011;66339;47.262;17.144;2023-06-05T00:56:37;3.53;;;1.90;;
77280;SDS011;66339;47.262;17.144;2023-06-05T00:59:07;3.25;;;1.87;;
77280;SDS011;66339;47.262;17.144;2023-06-05T01:01:36;4.40;;;2.00;;
77280;SDS011;66339;47.262;17.144;2023-06-05T01:04:12;2.83;;;1.83;;
77280;SDS011;66339;47.262;17.144;2023-06-05T01:06:41;3.00;;;1.60;;
77280;SDS011;66339;47.262;17.144;2023-06-05T01:09:08;3.58;;;1.80;;
77280;SDS011;66339;47.262;17.144;2023-06-05T01:11:50;3.92;;;2.00;;
77280;SDS011;66339;47.262;17.144;2023-06-05T01:14:33;3.10;;;1.80;;
77280;SDS011;66339;47.262;17.144;2023-06-05T01:17:05;5.10;;;1.90;;
77280;SDS011;66339;47.262;17.144;2023-06-05T01:19:37;2.25;;;1.50;;
77280;SDS011;66339;47.262;17.144;2023-06-05T01:22:10;2.50;;;1.85;;
77280;SDS011;66339;47.262;17.144;2023-06-05T01:24:38;4.05;;;1.98;;
77280;SDS011;66339;47.262;17.144;2023-06-05T01:27:16;4.00;;;2.40;;
77280;SDS011;66339;47.262;17.144;2023-06-05T01:30:02;3.97;;;2.10;;
77280;SDS011;66339;47.262;17.144;2023-06-05T01:32:45;3.42;;;1.73;;
77280;SDS011;66339;47.262;17.144;2023-06-05T01:35:18;2.97;;;1.90;;
77280;SDS011;66339;47.262;17.144;2023-06-05T01:38:03;4.07;;;1.70;;
77280;SDS011;66339;47.262;17.144;2023-06-05T01:40:38;2.90;;;1.87;;
77280;SDS011;66339;47.262;17.144;2023-06-05T01:43:15;2.50;;;1.73;;
77280;SDS011;66339;47.262;17.144;2023-06-05T01:45:50;4.37;;;2.08;;
77280;SDS011;66339;47.262;17.144;2023-06-05T01:48:31;3.62;;;1.70;;
77280;SDS011;66339;47.262;17.144;2023-06-05T01:51:00;3.28;;;1.70;;
77280;SDS011;66339;47.262;17.144;2023-06-05T01:53:31;2.97;;;1.70;;
77280;SDS011;66339;47.262;17.144;2023-06-05T01:55:59;2.37;;;1.70;;
77280;SDS011;66339;47.262;17.144;2023-06-05T01:58:30;2.08;;;1.50;;
77280;SDS011;66339;47.262;17.144;2023-06-05T02:01:02;3.10;;;1.80;;
77280;SDS011;66339;47.262;17.144;2023-06-05T02:03:35;3.95;;;1.80;;
77280;SDS011;66339;47.262;17.144;2023-06-05T02:06:11;4.93;;;2.15;;
77280;SDS011;66339;47.262;17.144;2023-06-05T02:08:43;2.65;;;1.70;;
77280;SDS011;66339;47.262;17.144;2023-06-05T02:11:22;2.85;;;1.70;;
77280;SDS011;66339;47.262;17.144;2023-06-05T02:13:55;4.45;;;2.15;;
77280;SDS011;66339;47.262;17.144;2023-06-05T02:16:23;3.10;;;1.70;;
77280;SDS011;66339;47.262;17.144;2023-06-05T02:18:55;2.10;;;1.60;;
77280;SDS011;66339;47.262;17.144;2023-06-05T02:21:29;2.55;;;1.50;;
77280;SDS011;66339;47.262;17.144;2023-06-05T02:24:00;3.28;;;1.80;;
77280;SDS011;66339;47.262;17.144;2023-06-05T02:26:28;2.05;;;1.65;;
77280;SDS011;66339;47.262;17.144;2023-06-05T02:29:01;4.57;;;1.70;;
77280;SDS011;66339;47.262;17.144;2023-06-05T02:31:32;1.90;;;1.60;;
77280;SDS011;66339;47.262;17.144;2023-06-05T02:34:02;3.85;;;2.03;;
77280;SDS011;66339;47.262;17.144;2023-06-05T02:36:36;3.03;;;1.70;;
77280;SDS011;66339;47.262;17.144;2023-06-05T02:39:07;2.17;;;1.70;;
77280;SDS011;66339;47.262;17.144;2023-06-05T02:41:44;5.12;;;1.60;;
77280;SDS011;66339;47.262;17.144;2023-06-05T02:44:12;2.00;;;1.65;;
77280;SDS011;66339;47.262;17.144;2023-06-05T02:46:44;2.50;;;1.52;;
77280;SDS011;66339;47.262;17.144;2023-06-05T02:49:20;4.00;;;1.73;;
77280;SDS011;66339;47.262;17.144;2023-06-05T02:51:55;2.05;;;1.50;;
77280;SDS011;66339;47.262;17.144;2023-06-05T02:54:29;4.30;;;1.62;;
77280;SDS011;66339;47.262;17.144;2023-06-05T02:57:09;1.92;;;1.50;;
77280;SDS011;66339;47.262;17.144;2023-06-05T02:59:42;2.28;;;1.62;;
77280;SDS011;66339;47.262;17.144;2023-06-05T03:02:18;2.20;;;1.60;;
77280;SDS011;66339;47.262;17.144;2023-06-05T03:07:29;2.03;;;1.42;;
77280;SDS011;66339;47.262;17.144;2023-06-05T03:10:00;2.15;;;1.70;;
77280;SDS011;66339;47.262;17.144;2023-06-05T03:12:36;2.10;;;1.65;;
77280;SDS011;66339;47.262;17.144;2023-06-05T03:15:06;2.37;;;1.67;;
77280;SDS011;66339;47.262;17.144;2023-06-05T03:17:41;2.33;;;1.60;;
77280;SDS011;66339;47.262;17.144;2023-06-05T03:20:11;2.85;;;1.75;;
77280;SDS011;66339;47.262;17.144;2023-06-05T03:22:44;2.75;;;1.70;;
77280;SDS011;66339;47.262;17.144;2023-06-05T03:25:17;2.12;;;1.50;;
77280;SDS011;66339;47.262;17.144;2023-06-05T03:27:50;1.65;;;1.40;;
77280;SDS011;66339;47.262;17.144;2023-06-05T03:30:25;3.37;;;1.70;;
77280;SDS011;66339;47.262;17.144;2023-06-05T03:32:55;2.65;;;1.85;;
77280;SDS011;66339;47.262;17.144;2023-06-05T03:35:29;2.50;;;1.60;;
77280;SDS011;66339;47.262;17.144;2023-06-05T03:38:03;2.35;;;1.60;;
77280;SDS011;66339;47.262;17.144;2023-06-05T03:40:36;2.40;;;1.52;;
77280;SDS011;66339;47.262;17.144;2023-06-05T03:43:08;1.87;;;1.50;;
77280;SDS011;66339;47.262;17.144;2023-06-05T03:45:39;2.03;;;1.37;;
77280;SDS011;66339;47.262;17.144;2023-06-05T03:48:13;2.72;;;1.83;;
77280;SDS011;66339;47.262;17.144;2023-06-05T03:50:46;4.53;;;1.67;;
77280;SDS011;66339;47.262;17.144;2023-06-05T03:53:20;1.60;;;1.40;;
77280;SDS011;66339;47.262;17.144;2023-06-05T03:55:48;2.12;;;1.55;;
77280;SDS011;66339;47.262;17.144;2023-06-05T03:58:19;2.80;;;1.60;;
77280;SDS011;66339;47.262;17.144;2023-06-05T04:00:51;3.28;;;1.73;;
77280;SDS011;66339;47.262;17.144;2023-06-05T04:03:21;1.83;;;1.58;;
77280;SDS011;66339;47.262;17.144;2023-06-05T04:05:55;3.25;;;2.00;;
77280;SDS011;66339;47.262;17.144;2023-06-05T04:08:26;2.95;;;1.80;;
77280;SDS011;66339;47.262;17.144;2023-06-05T04:10:59;4.57;;;1.77;;
77280;SDS011;66339;47.262;17.144;2023-06-05T04:16:03;1.83;;;1.67;;
77280;SDS011;66339;47.262;17.144;2023-06-05T04:18:33;2.62;;;1.67;;
77280;SDS011;66339;47.262;17.144;2023-06-05T04:21:09;1.90;;;1.67;;
77280;SDS011;66339;47.262;17.144;2023-06-05T04:23:36;2.50;;;1.65;;
77280;SDS011;66339;47.262;17.144;2023-06-05T04:26:16;2.55;;;1.70;;
77280;SDS011;66339;47.262;17.144;2023-06-05T04:28:47;1.83;;;1.50;;
77280;SDS011;66339;47.262;17.144;2023-06-05T04:32:04;1.77;;;1.50;;
77280;SDS011;66339;47.262;17.144;2023-06-05T04:34:19;2.92;;;1.92;;
77280;SDS011;66339;47.262;17.144;2023-06-05T04:36:53;2.25;;;1.80;;
77280;SDS011;66339;47.262;17.144;2023-06-05T04:39:27;3.85;;;1.55;;
77280;SDS011;66339;47.262;17.144;2023-06-05T04:41:55;1.83;;;1.48;;
77280;SDS011;66339;47.262;17.144;2023-06-05T04:44:43;2.10;;;1.65;;
77280;SDS011;66339;47.262;17.144;2023-06-05T04:47:17;2.90;;;1.70;;
77280;SDS011;66339;47.262;17.144;2023-06-05T04:49:50;2.47;;;1.60;;
77280;SDS011;66339;47.262;17.144;2023-06-05T04:52:29;4.60;;;2.33;;
77280;SDS011;66339;47.262;17.144;2023-06-05T04:55:01;3.80;;;1.80;;
77280;SDS011;66339;47.262;17.144;2023-06-05T04:57:33;2.10;;;1.62;;
77280;SDS011;66339;47.262;17.144;2023-06-05T05:00:06;8.68;;;2.05;;
77280;SDS011;66339;47.262;17.144;2023-06-05T05:02:37;2.87;;;1.60;;
77280;SDS011;66339;47.262;17.144;2023-06-05T05:05:05;3.10;;;1.85;;
77280;SDS011;66339;47.262;17.144;2023-06-05T05:07:45;6.93;;;2.40;;
77280;SDS011;66339;47.262;17.144;2023-06-05T05:10:23;9.77;;;2.05;;
77280;SDS011;66339;47.262;17.144;2023-06-05T05:12:56;7.78;;;1.62;;
77280;SDS011;66339;47.262;17.144;2023-06-05T05:15:32;3.40;;;1.75;;
77280;SDS011;66339;47.262;17.144;2023-06-05T05:18:07;12.93;;;2.10;;
77280;SDS011;66339;47.262;17.144;2023-06-05T05:20:43;9.10;;;1.70;;
77280;SDS011;66339;47.262;17.144;2023-06-05T05:23:20;6.62;;;2.03;;
77280;SDS011;66339;47.262;17.144;2023-06-05T05:25:50;4.28;;;1.92;;
77280;SDS011;66339;47.262;17.144;2023-06-05T05:28:23;4.45;;;2.10;;
77280;SDS011;66339;47.262;17.144;2023-06-05T05:30:59;4.20;;;2.10;;
77280;SDS011;66339;47.262;17.144;2023-06-05T05:33:30;12.10;;;2.05;;
77280;SDS011;66339;47.262;17.144;2023-06-05T05:36:03;3.72;;;2.12;;
77280;SDS011;66339;47.262;17.144;2023-06-05T05:38:36;5.03;;;2.30;;
77280;SDS011;66339;47.262;17.144;2023-06-05T05:41:09;5.05;;;2.00;;
77280;SDS011;66339;47.262;17.144;2023-06-05T05:43:40;12.85;;;2.30;;
77280;SDS011;66339;47.262;17.144;2023-06-05T05:46:13;6.25;;;2.05;;
77280;SDS011;66339;47.262;17.144;2023-06-05T05:51:22;7.18;;;2.35;;
77280;SDS011;66339;47.262;17.144;2023-06-05T05:54:02;3.42;;;1.92;;
77280;SDS011;66339;47.262;17.144;2023-06-05T05:56:40;4.43;;;2.00;;
77280;SDS011;66339;47.262;17.144;2023-06-05T05:59:12;4.40;;;2.35;;
77280;SDS011;66339;47.262;17.144;2023-06-05T06:01:46;5.53;;;2.00;;
77280;SDS011;66339;47.262;17.144;2023-06-05T06:04:19;3.50;;;2.00;;
77280;SDS011;66339;47.262;17.144;2023-06-05T06:06:56;5.80;;;2.20;;
77280;SDS011;66339;47.262;17.144;2023-06-05T06:09:36;4.07;;;1.92;;
77280;SDS011;66339;47.262;17.144;2023-06-05T06:12:06;7.62;;;2.10;;
77280;SDS011;66339;47.262;17.144;2023-06-05T06:14:41;7.43;;;2.35;;
77280;SDS011;66339;47.262;17.144;2023-06-05T06:17:16;3.20;;;2.20;;
77280;SDS011;66339;47.262;17.144;2023-06-05T06:19:43;65.87;;;26.55;;
77280;SDS011;66339;47.262;17.144;2023-06-05T06:22:22;32.63;;;13.85;;
77280;SDS011;66339;47.262;17.144;2023-06-05T06:24:52;69.53;;;24.90;;
77280;SDS011;66339;47.262;17.144;2023-06-05T06:27:25;25.48;;;10.32;;
77280;SDS011;66339;47.262;17.144;2023-06-05T06:30:04;88.47;;;36.88;;
77280;SDS011;66339;47.262;17.144;2023-06-05T06:32:37;79.75;;;35.15;;
77280;SDS011;66339;47.262;17.144;2023-06-05T06:35:14;67.68;;;29.37;;
77280;SDS011;66339;47.262;17.144;2023-06-05T06:37:44;68.45;;;27.75;;
77280;SDS011;66339;47.262;17.144;2023-06-05T06:40:17;69.47;;;25.12;;
77280;SDS011;66339;47.262;17.144;2023-06-05T06:42:56;62.80;;;23.42;;
77280;SDS011;66339;47.262;17.144;2023-06-05T06:45:32;61.35;;;25.98;;
77280;SDS011;66339;47.262;17.144;2023-06-05T06:48:02;39.58;;;17.60;;
77280;SDS011;66339;47.262;17.144;2023-06-05T06:50:36;34.70;;;13.50;;
77280;SDS011;66339;47.262;17.144;2023-06-05T06:53:12;39.50;;;14.55;;
77280;SDS011;66339;47.262;17.144;2023-06-05T06:55:46;30.73;;;14.52;;
77280;SDS011;66339;47.262;17.144;2023-06-05T06:58:13;39.10;;;14.85;;
77280;SDS011;66339;47.262;17.144;2023-06-05T07:00:43;35.97;;;14.90;;
77280;SDS011;66339;47.262;17.144;2023-06-05T07:03:13;34.33;;;14.40;;
77280;SDS011;66339;47.262;17.144;2023-06-05T07:05:43;29.87;;;14.90;;
77280;SDS011;66339;47.262;17.144;2023-06-05T07:08:16;31.05;;;14.00;;
77280;SDS011;66339;47.262;17.144;2023-06-05T07:10:48;20.42;;;9.68;;
77280;SDS011;66339;47.262;17.144;2023-06-05T07:13:22;18.62;;;8.60;;
77280;SDS011;66339;47.262;17.144;2023-06-05T07:15:51;23.45;;;10.07;;
77280;SDS011;66339;47.262;17.144;2023-06-05T07:18:24;22.33;;;9.45;;
77280;SDS011;66339;47.262;17.144;2023-06-05T07:20:58;21.42;;;8.85;;
77280;SDS011;66339;47.262;17.144;2023-06-05T07:23:31;20.55;;;9.15;;
77280;SDS011;66339;47.262;17.144;2023-06-05T07:26:07;24.37;;;9.88;;
77280;SDS011;66339;47.262;17.144;2023-06-05T07:28:34;17.92;;;9.70;;
77280;SDS011;66339;47.262;17.144;2023-06-05T07:31:13;18.98;;;9.00;;
77280;SDS011;66339;47.262;17.144;2023-06-05T07:33:43;16.35;;;7.18;;
77280;SDS011;66339;47.262;17.144;2023-06-05T07:36:20;18.37;;;7.72;;
77280;SDS011;66339;47.262;17.144;2023-06-05T07:38:47;15.05;;;7.18;;
77280;SDS011;66339;47.262;17.144;2023-06-05T07:41:20;21.80;;;7.85;;
77280;SDS011;66339;47.262;17.144;2023-06-05T07:46:22;13.35;;;6.85;;
77280;SDS011;66339;47.262;17.144;2023-06-05T07:49:01;19.73;;;6.90;;
77280;SDS011;66339;47.262;17.144;2023-06-05T07:51:41;16.75;;;6.65;;
77280;SDS011;66339;47.262;17.144;2023-06-05T07:54:18;17.60;;;6.70;;
77280;SDS011;66339;47.262;17.144;2023-06-05T07:56:51;16.70;;;6.55;;
77280;SDS011;66339;47.262;17.144;2023-06-05T07:59:24;16.25;;;7.12;;
77280;SDS011;66339;47.262;17.144;2023-06-05T08:01:55;14.05;;;6.43;;
77280;SDS011;66339;47.262;17.144;2023-06-05T08:07:08;18.10;;;6.28;;
77280;SDS011;66339;47.262;17.144;2023-06-05T08:09:38;14.57;;;5.87;;
77280;SDS011;66339;47.262;17.144;2023-06-05T08:12:07;19.65;;;6.15;;
77280;SDS011;66339;47.262;17.144;2023-06-05T08:17:16;13.27;;;5.15;;
77280;SDS011;66339;47.262;17.144;2023-06-05T08:19:50;10.80;;;5.43;;
77280;SDS011;66339;47.262;17.144;2023-06-05T08:22:24;13.07;;;5.50;;
77280;SDS011;66339;47.262;17.144;2023-06-05T08:25:00;12.60;;;5.47;;
77280;SDS011;66339;47.262;17.144;2023-06-05T08:27:35;10.68;;;5.30;;
77280;SDS011;66339;47.262;17.144;2023-06-05T08:30:11;9.30;;;5.00;;
77280;SDS011;66339;47.262;17.144;2023-06-05T08:32:43;11.82;;;5.47;;
77280;SDS011;66339;47.262;17.144;2023-06-05T08:35:10;10.15;;;4.82;;
77280;SDS011;66339;47.262;17.144;2023-06-05T08:37:43;10.27;;;4.62;;
77280;SDS011;66339;47.262;17.144;2023-06-05T08:40:16;10.70;;;5.12;;
77280;SDS011;66339;47.262;17.144;2023-06-05T08:42:52;10.88;;;4.65;;
77280;SDS011;66339;47.262;17.144;2023-06-05T08:48:00;9.70;;;4.53;;
77280;SDS011;66339;47.262;17.144;2023-06-05T08:50:32;8.27;;;4.62;;
77280;SDS011;66339;47.262;17.144;2023-06-05T08:53:05;12.85;;;4.47;;
77280;SDS011;66339;47.262;17.144;2023-06-05T08:55:44;12.48;;;4.45;;
77280;SDS011;66339;47.262;17.144;2023-06-05T08:58:23;7.10;;;4.37;;
77280;SDS011;66339;47.262;17.144;2023-06-05T09:00:56;12.70;;;4.68;;
77280;SDS011;66339;47.262;17.144;2023-06-05T09:03:24;8.00;;;4.03;;
77280;SDS011;66339;47.262;17.144;2023-06-05T09:05:56;7.57;;;3.78;;
77280;SDS011;66339;47.262;17.144;2023-06-05T09:08:42;9.13;;;4.00;;
77280;SDS011;66339;47.262;17.144;2023-06-05T09:11:27;7.18;;;3.72;;
77280;SDS011;66339;47.262;17.144;2023-06-05T09:13:56;11.12;;;4.37;;
77280;SDS011;66339;47.262;17.144;2023-06-05T09:19:05;8.98;;;4.03;;
77280;SDS011;66339;47.262;17.144;2023-06-05T09:21:38;7.80;;;3.60;;
77280;SDS011;66339;47.262;17.144;2023-06-05T09:24:15;9.52;;;3.65;;
77280;SDS011;66339;47.262;17.144;2023-06-05T09:29:27;11.57;;;3.62;;
77280;SDS011;66339;47.262;17.144;2023-06-05T09:32:00;10.30;;;3.67;;
77280;SDS011;66339;47.262;17.144;2023-06-05T09:34:32;10.00;;;3.90;;
77280;SDS011;66339;47.262;17.144;2023-06-05T09:37:15;9.20;;;3.25;;
77280;SDS011;66339;47.262;17.144;2023-06-05T09:39:44;10.68;;;3.65;;
77280;SDS011;66339;47.262;17.144;2023-06-05T09:42:41;7.57;;;3.12;;
77280;SDS011;66339;47.262;17.144;2023-06-05T09:45:10;12.88;;;3.47;;
77280;SDS011;66339;47.262;17.144;2023-06-05T09:47:41;7.32;;;3.80;;
77280;SDS011;66339;47.262;17.144;2023-06-05T09:50:23;7.37;;;3.65;;
77280;SDS011;66339;47.262;17.144;2023-06-05T09:52:56;9.05;;;3.03;;
77280;SDS011;66339;47.262;17.144;2023-06-05T09:55:36;9.00;;;3.40;;
77280;SDS011;66339;47.262;17.144;2023-06-05T09:58:15;10.73;;;3.42;;
77280;SDS011;66339;47.262;17.144;2023-06-05T10:00:50;13.93;;;4.05;;
77280;SDS011;66339;47.262;17.144;2023-06-05T10:03:31;8.07;;;3.35;;
77280;SDS011;66339;47.262;17.144;2023-06-05T10:06:04;12.10;;;3.25;;
77280;SDS011;66339;47.262;17.144;2023-06-05T10:08:42;7.22;;;3.47;;
77280;SDS011;66339;47.262;17.144;2023-06-05T10:11:14;10.63;;;3.65;;
77280;SDS011;66339;47.262;17.144;2023-06-05T10:13:47;14.45;;;3.75;;
77280;SDS011;66339;47.262;17.144;2023-06-05T10:16:26;9.38;;;3.42;;
77280;SDS011;66339;47.262;17.144;2023-06-05T10:18:58;24.23;;;4.50;;
77280;SDS011;66339;47.262;17.144;2023-06-05T10:21:32;10.90;;;3.40;;
77280;SDS011;66339;47.262;17.144;2023-06-05T10:24:09;9.43;;;3.37;;
77280;SDS011;66339;47.262;17.144;2023-06-05T10:33:11;9.80;;;3.40;;
77280;SDS011;66339;47.262;17.144;2023-06-05T10:40:59;11.68;;;3.37;;
77280;SDS011;66339;47.262;17.144;2023-06-05T10:43:54;15.02;;;3.33;;
77280;SDS011;66339;47.262;17.144;2023-06-05T10:46:35;7.20;;;3.05;;
77280;SDS011;66339;47.262;17.144;2023-06-05T10:49:16;10.32;;;2.85;;
77280;SDS011;66339;47.262;17.144;2023-06-05T10:51:51;15.38;;;3.20;;
77280;SDS011;66339;47.262;17.144;2023-06-05T10:59:19;12.95;;;3.40;;
77280;SDS011;66339;47.262;17.144;2023-06-05T11:07:14;8.65;;;3.42;;
77280;SDS011;66339;47.262;17.144;2023-06-05T11:15:10;6.75;;;2.97;;
77280;SDS011;66339;47.262;17.144;2023-06-05T11:17:43;9.02;;;3.12;;
77280;SDS011;66339;47.262;17.144;2023-06-05T11:25:47;8.02;;;2.83;;
77280;SDS011;66339;47.262;17.144;2023-06-05T11:28:16;8.63;;;3.22;;
77280;SDS011;66339;47.262;17.144;2023-06-05T11:31:11;7.12;;;2.85;;
77280;SDS011;66339;47.262;17.144;2023-06-05T11:33:54;4.82;;;2.80;;
77280;SDS011;66339;47.262;17.144;2023-06-05T11:36:21;6.30;;;2.83;;
77280;SDS011;66339;47.262;17.144;2023-06-05T11:39:01;5.03;;;2.92;;
77280;SDS011;66339;47.262;17.144;2023-06-05T11:41:37;9.35;;;2.90;;
77280;SDS011;66339;47.262;17.144;2023-06-05T11:44:31;10.45;;;3.65;;
77280;SDS011;66339;47.262;17.144;2023-06-05T11:47:04;8.57;;;3.03;;
77280;SDS011;66339;47.262;17.144;2023-06-05T11:49:32;11.65;;;3.20;;
77280;SDS011;66339;47.262;17.144;2023-06-05T11:52:05;8.27;;;2.90;;
77280;SDS011;66339;47.262;17.144;2023-06-05T11:54:38;12.37;;;2.95;;
77280;SDS011;66339;47.262;17.144;2023-06-05T11:57:12;7.53;;;3.00;;
77280;SDS011;66339;47.262;17.144;2023-06-05T11:59:42;7.90;;;3.08;;
77280;SDS011;66339;47.262;17.144;2023-06-05T12:02:11;11.05;;;3.25;;
77280;SDS011;66339;47.262;17.144;2023-06-05T12:04:41;11.25;;;3.12;;
77280;SDS011;66339;47.262;17.144;2023-06-05T12:07:35;10.70;;;3.17;;
77280;SDS011;66339;47.262;17.144;2023-06-05T12:10:17;8.88;;;3.60;;
77280;SDS011;66339;47.262;17.144;2023-06-05T12:12:53;9.50;;;3.70;;
77280;SDS011;66339;47.262;17.144;2023-06-05T12:15:23;11.07;;;3.40;;
77280;SDS011;66339;47.262;17.144;2023-06-05T12:17:55;19.62;;;3.70;;
77280;SDS011;66339;47.262;17.144;2023-06-05T12:20:25;13.80;;;4.62;;
77280;SDS011;66339;47.262;17.144;2023-06-05T12:23:06;11.77;;;4.03;;
77280;SDS011;66339;47.262;17.144;2023-06-05T12:25:38;7.90;;;4.05;;
77280;SDS011;66339;47.262;17.144;2023-06-05T12:28:18;14.23;;;4.25;;
77280;SDS011;66339;47.262;17.144;2023-06-05T12:30:51;9.75;;;3.90;;
77280;SDS011;66339;47.262;17.144;2023-06-05T12:33:24;16.65;;;4.43;;
77280;SDS011;66339;47.262;17.144;2023-06-05T12:36:04;10.98;;;3.92;;
77280;SDS011;66339;47.262;17.144;2023-06-05T12:38:38;8.20;;;3.78;;
77280;SDS011;66339;47.262;17.144;2023-06-05T12:41:06;13.77;;;4.53;;
77280;SDS011;66339;47.262;17.144;2023-06-05T12:43:43;14.60;;;4.67;;
77280;SDS011;66339;47.262;17.144;2023-06-05T12:48:38;14.00;;;4.05;;
77280;SDS011;66339;47.262;17.144;2023-06-05T12:51:05;8.15;;;3.40;;
77280;SDS011;66339;47.262;17.144;2023-06-05T12:53:33;9.27;;;3.67;;
77280;SDS011;66339;47.262;17.144;2023-06-05T12:56:05;11.65;;;3.90;;
77280;SDS011;66339;47.262;17.144;2023-06-05T12:58:38;12.15;;;3.80;;
77280;SDS011;66339;47.262;17.144;2023-06-05T13:01:09;8.27;;;3.33;;
77280;SDS011;66339;47.262;17.144;2023-06-05T13:03:38;13.93;;;3.47;;
77280;SDS011;66339;47.262;17.144;2023-06-05T13:06:09;5.78;;;3.25;;
77280;SDS011;66339;47.262;17.144;2023-06-05T13:08:40;7.68;;;3.62;;
77280;SDS011;66339;47.262;17.144;2023-06-05T13:11:14;8.48;;;3.70;;
77280;SDS011;66339;47.262;17.144;2023-06-05T13:13:41;14.40;;;3.78;;
77280;SDS011;66339;47.262;17.144;2023-06-05T13:16:10;5.87;;;3.25;;
77280;SDS011;66339;47.262;17.144;2023-06-05T13:18:44;8.15;;;3.97;;
77280;SDS011;66339;47.262;17.144;2023-06-05T13:21:12;5.82;;;3.42;;
77280;SDS011;66339;47.262;17.144;2023-06-05T13:23:39;5.37;;;3.33;;
77280;SDS011;66339;47.262;17.144;2023-06-05T13:26:09;7.25;;;3.22;;
77280;SDS011;66339;47.262;17.144;2023-06-05T13:28:39;7.68;;;3.12;;
77280;SDS011;66339;47.262;17.144;2023-06-05T13:31:15;4.60;;;3.10;;
77280;SDS011;66339;47.262;17.144;2023-06-05T13:33:45;6.62;;;3.58;;
77280;SDS011;66339;47.262;17.144;2023-06-05T13:36:22;6.97;;;3.22;;
77280;SDS011;66339;47.262;17.144;2023-06-05T13:38:56;7.57;;;3.28;;
77280;SDS011;66339;47.262;17.144;2023-06-05T13:41:23;6.68;;;3.28;;
77280;SDS011;66339;47.262;17.144;2023-06-05T13:43:56;7.12;;;3.12;;
77280;SDS011;66339;47.262;17.144;2023-06-05T13:46:26;5.32;;;3.25;;
77280;SDS011;66339;47.262;17.144;2023-06-05T13:48:57;7.72;;;3.50;;
77280;SDS011;66339;47.262;17.144;2023-06-05T13:51:30;7.07;;;3.17;;
77280;SDS011;66339;47.262;17.144;2023-06-05T13:54:01;4.90;;;3.33;;
77280;SDS011;66339;47.262;17.144;2023-06-05T13:56:28;8.30;;;3.42;;
77280;SDS011;66339;47.262;17.144;2023-06-05T14:01:39;5.43;;;3.12;;
77280;SDS011;66339;47.262;17.144;2023-06-05T14:04:15;4.43;;;3.05;;
77280;SDS011;66339;47.262;17.144;2023-06-05T14:06:46;7.32;;;3.28;;
77280;SDS011;66339;47.262;17.144;2023-06-05T14:09:18;5.55;;;3.20;;
77280;SDS011;66339;47.262;17.144;2023-06-05T14:11:51;8.07;;;3.08;;
77280;SDS011;66339;47.262;17.144;2023-06-05T14:14:24;6.45;;;3.42;;
77280;SDS011;66339;47.262;17.144;2023-06-05T14:16:52;5.70;;;3.37;;
77280;SDS011;66339;47.262;17.144;2023-06-05T14:19:23;7.90;;;3.30;;
77280;SDS011;66339;47.262;17.144;2023-06-05T14:21:56;8.55;;;3.25;;
77280;SDS011;66339;47.262;17.144;2023-06-05T14:24:32;5.68;;;3.25;;
77280;SDS011;66339;47.262;17.144;2023-06-05T14:27:03;5.82;;;3.33;;
77280;SDS011;66339;47.262;17.144;2023-06-05T14:29:30;6.18;;;3.12;;
77280;SDS011;66339;47.262;17.144;2023-06-05T14:31:57;4.50;;;2.97;;
77280;SDS011;66339;47.262;17.144;2023-06-05T14:34:31;6.85;;;3.10;;
77280;SDS011;66339;47.262;17.144;2023-06-05T14:37:02;8.85;;;3.62;;
77280;SDS011;66339;47.262;17.144;2023-06-05T14:39:36;7.35;;;3.05;;
77280;SDS011;66339;47.262;17.144;2023-06-05T14:42:07;9.13;;;3.37;;
77280;SDS011;66339;47.262;17.144;2023-06-05T14:44:38;5.47;;;3.53;;
77280;SDS011;66339;47.262;17.144;2023-06-05T14:47:14;9.85;;;3.00;;
77280;SDS011;66339;47.262;17.144;2023-06-05T14:49:44;4.70;;;2.95;;
77280;SDS011;66339;47.262;17.144;2023-06-05T14:52:11;6.12;;;3.30;;
77280;SDS011;66339;47.262;17.144;2023-06-05T14:54:47;9.43;;;3.50;;
77280;SDS011;66339;47.262;17.144;2023-06-05T14:57:30;7.57;;;3.30;;
77280;SDS011;66339;47.262;17.144;2023-06-05T15:00:01;5.78;;;3.00;;
77280;SDS011;66339;47.262;17.144;2023-06-05T15:02:31;5.65;;;3.37;;
77280;SDS011;66339;47.262;17.144;2023-06-05T15:05:04;5.62;;;2.97;;
77280;SDS011;66339;47.262;17.144;2023-06-05T15:07:36;7.55;;;3.78;;
77280;SDS011;66339;47.262;17.144;2023-06-05T15:10:11;5.85;;;3.42;;
77280;SDS011;66339;47.262;17.144;2023-06-05T15:12:42;4.43;;;2.87;;
77280;SDS011;66339;47.262;17.144;2023-06-05T15:15:09;4.72;;;3.25;;
77280;SDS011;66339;47.262;17.144;2023-06-05T15:17:46;5.40;;;3.15;;
77280;SDS011;66339;47.262;17.144;2023-06-05T15:20:21;5.00;;;3.20;;
77280;SDS011;66339;47.262;17.144;2023-06-05T15:23:04;5.32;;;3.17;;
77280;SDS011;66339;47.262;17.144;2023-06-05T15:25:47;9.27;;;3.25;;
77280;SDS011;66339;47.262;17.144;2023-06-05T15:28:19;4.95;;;3.42;;
77280;SDS011;66339;47.262;17.144;2023-06-05T15:33:31;11.00;;;3.65;;
77280;SDS011;66339;47.262;17.144;2023-06-05T15:36:09;4.78;;;3.30;;
77280;SDS011;66339;47.262;17.144;2023-06-05T15:38:41;6.43;;;3.60;;
77280;SDS011;66339;47.262;17.144;2023-06-05T15:41:13;15.38;;;4.30;;
77280;SDS011;66339;47.262;17.144;2023-06-05T15:43:56;8.85;;;4.18;;
77280;SDS011;66339;47.262;17.144;2023-06-05T15:46:26;9.68;;;4.03;;
77280;SDS011;66339;47.262;17.144;2023-06-05T15:49:02;12.13;;;4.37;;
77280;SDS011;66339;47.262;17.144;2023-06-05T15:51:41;9.10;;;4.32;;
77280;SDS011;66339;47.262;17.144;2023-06-05T15:54:11;10.60;;;4.43;;
77280;SDS011;66339;47.262;17.144;2023-06-05T15:57:10;9.30;;;4.37;;
77280;SDS011;66339;47.262;17.144;2023-06-05T15:59:40;10.38;;;4.43;;
77280;SDS011;66339;47.262;17.144;2023-06-05T16:04:58;7.28;;;4.28;;
77280;SDS011;66339;47.262;17.144;2023-06-05T16:07:40;9.50;;;4.12;;
77280;SDS011;66339;47.262;17.144;2023-06-05T16:10:10;8.40;;;4.03;;
77280;SDS011;66339;47.262;17.144;2023-06-05T16:12:42;8.00;;;3.75;;
77280;SDS011;66339;47.262;17.144;2023-06-05T16:15:16;6.87;;;4.20;;
77280;SDS011;66339;47.262;17.144;2023-06-05T16:17:52;8.50;;;4.37;;